sensor_id;sensor_type;location;lat;lon;timestamp;P1;durP1;ratioP1;P2;durP2;ratioP2
33672;SDS011;20011;51.510;9.942;2023-09-30T00:01:01;9.27;;;2.75;;
33672;SDS011;20011;51.510;9.942;2023-09-30T00:03:29;7.90;;;2.20;;
33672;SDS011;20011;51.510;9.942;2023-09-30T00:05:56;12.18;;;2.80;;
33672;SDS011;20011;51.510;9.942;2023-09-30T00:08:23;10.10;;;3.22;;
33672;SDS011;20011;51.510;9.942;2023-09-30T00:10:50;9.68;;;3.05;;
33672;SDS011;20011;51.510;9.942;2023-09-30T00:13:19;10.75;;;3.00;;
33672;SDS011;20011;51.510;9.942;2023-09-30T00:15:46;9.35;;;2.92;;
33672;SDS011;20011;51.510;9.942;2023-09-30T00:18:13;13.57;;;3.38;;
33672;SDS011;20011;51.510;9.942;2023-09-30T00:20:40;5.72;;;2.50;;
33672;SDS011;20011;51.510;9.942;2023-09-30T00:23:07;8.25;;;3.42;;
33672;SDS011;20011;51.510;9.942;2023-09-30T00:25:35;9.50;;;3.25;;
33672;SDS011;20011;51.510;9.942;2023-09-30T00:28:02;11.77;;;3.95;;
33672;SDS011;20011;51.510;9.942;2023-09-30T00:30:29;12.02;;;3.72;;
33672;SDS011;20011;51.510;9.942;2023-09-30T00:32:56;11.60;;;3.97;;
33672;SDS011;20011;51.510;9.942;2023-09-30T00:35:23;12.93;;;3.70;;
33672;SDS011;20011;51.510;9.942;2023-09-30T00:37:50;12.50;;;3.70;;
33672;SDS011;20011;51.510;9.942;2023-09-30T00:40:17;8.57;;;3.47;;
33672;SDS011;20011;51.510;9.942;2023-09-30T00:42:44;11.85;;;3.95;;
33672;SDS011;20011;51.510;9.942;2023-09-30T00:45:11;11.35;;;3.65;;
33672;SDS011;20011;51.510;9.942;2023-09-30T00:47:38;10.93;;;3.97;;
33672;SDS011;20011;51.510;9.942;2023-09-30T00:50:06;11.40;;;3.47;;
33672;SDS011;20011;51.510;9.942;2023-09-30T00:52:35;13.63;;;3.60;;
33672;SDS011;20011;51.510;9.942;2023-09-30T00:55:02;14.68;;;4.15;;
33672;SDS011;20011;51.510;9.942;2023-09-30T00:57:29;10.40;;;4.10;;
33672;SDS011;20011;51.510;9.942;2023-09-30T00:59:57;13.45;;;4.20;;
33672;SDS011;20011;51.510;9.942;2023-09-30T01:02:24;12.25;;;4.28;;
33672;SDS011;20011;51.510;9.942;2023-09-30T01:04:52;11.60;;;4.25;;
33672;SDS011;20011;51.510;9.942;2023-09-30T01:07:20;9.15;;;3.67;;
33672;SDS011;20011;51.510;9.942;2023-09-30T01:09:48;12.15;;;3.22;;
33672;SDS011;20011;51.510;9.942;2023-09-30T01:12:18;14.07;;;4.32;;
33672;SDS011;20011;51.510;9.942;2023-09-30T01:14:45;11.77;;;3.58;;
33672;SDS011;20011;51.510;9.942;2023-09-30T01:17:12;12.68;;;3.58;;
33672;SDS011;20011;51.510;9.942;2023-09-30T01:19:40;15.95;;;4.03;;
33672;SDS011;20011;51.510;9.942;2023-09-30T01:22:09;16.33;;;4.65;;
33672;SDS011;20011;51.510;9.942;2023-09-30T01:24:40;11.05;;;3.92;;
33672;SDS011;20011;51.510;9.942;2023-09-30T01:27:09;12.20;;;3.92;;
33672;SDS011;20011;51.510;9.942;2023-09-30T01:29:36;12.48;;;4.53;;
33672;SDS011;20011;51.510;9.942;2023-09-30T01:32:05;15.98;;;4.63;;
33672;SDS011;20011;51.510;9.942;2023-09-30T01:34:36;13.90;;;3.40;;
33672;SDS011;20011;51.510;9.942;2023-09-30T01:37:03;12.07;;;4.15;;
33672;SDS011;20011;51.510;9.942;2023-09-30T01:39:31;12.70;;;3.90;;
33672;SDS011;20011;51.510;9.942;2023-09-30T01:41:59;15.55;;;3.63;;
33672;SDS011;20011;51.510;9.942;2023-09-30T01:44:26;9.10;;;4.00;;
33672;SDS011;20011;51.510;9.942;2023-09-30T01:46:54;10.75;;;3.67;;
33672;SDS011;20011;51.510;9.942;2023-09-30T01:49:21;12.00;;;4.40;;
33672;SDS011;20011;51.510;9.942;2023-09-30T01:51:50;12.63;;;3.85;;
33672;SDS011;20011;51.510;9.942;2023-09-30T01:54:17;11.95;;;3.72;;
33672;SDS011;20011;51.510;9.942;2023-09-30T01:56:44;12.20;;;3.67;;
33672;SDS011;20011;51.510;9.942;2023-09-30T01:59:11;14.55;;;3.92;;
33672;SDS011;20011;51.510;9.942;2023-09-30T02:01:38;9.73;;;3.65;;
33672;SDS011;20011;51.510;9.942;2023-09-30T02:04:06;12.52;;;3.55;;
33672;SDS011;20011;51.510;9.942;2023-09-30T02:06:33;19.88;;;3.42;;
33672;SDS011;20011;51.510;9.942;2023-09-30T02:09:01;11.48;;;3.83;;
33672;SDS011;20011;51.510;9.942;2023-09-30T02:11:29;12.23;;;3.92;;
33672;SDS011;20011;51.510;9.942;2023-09-30T02:13:56;10.70;;;3.63;;
33672;SDS011;20011;51.510;9.942;2023-09-30T02:16:23;17.23;;;4.80;;
33672;SDS011;20011;51.510;9.942;2023-09-30T02:18:51;9.68;;;3.40;;
33672;SDS011;20011;51.510;9.942;2023-09-30T02:21:19;10.85;;;3.80;;
33672;SDS011;20011;51.510;9.942;2023-09-30T02:23:48;13.27;;;4.18;;
33672;SDS011;20011;51.510;9.942;2023-09-30T02:26:15;12.10;;;4.05;;
33672;SDS011;20011;51.510;9.942;2023-09-30T02:28:42;12.88;;;4.40;;
33672;SDS011;20011;51.510;9.942;2023-09-30T02:31:09;9.18;;;3.65;;
33672;SDS011;20011;51.510;9.942;2023-09-30T02:33:37;10.55;;;3.47;;
33672;SDS011;20011;51.510;9.942;2023-09-30T02:36:08;11.60;;;3.92;;
33672;SDS011;20011;51.510;9.942;2023-09-30T02:38:35;12.63;;;4.20;;
33672;SDS011;20011;51.510;9.942;2023-09-30T02:41:05;15.63;;;4.57;;
33672;SDS011;20011;51.510;9.942;2023-09-30T02:43:32;12.55;;;3.97;;
33672;SDS011;20011;51.510;9.942;2023-09-30T02:45:59;15.35;;;4.32;;
33672;SDS011;20011;51.510;9.942;2023-09-30T02:48:26;9.57;;;3.70;;
33672;SDS011;20011;51.510;9.942;2023-09-30T02:50:54;16.85;;;4.22;;
33672;SDS011;20011;51.510;9.942;2023-09-30T02:53:21;11.90;;;4.45;;
33672;SDS011;20011;51.510;9.942;2023-09-30T02:55:48;8.30;;;3.70;;
33672;SDS011;20011;51.510;9.942;2023-09-30T02:58:18;12.88;;;4.05;;
33672;SDS011;20011;51.510;9.942;2023-09-30T03:00:48;17.17;;;3.63;;
33672;SDS011;20011;51.510;9.942;2023-09-30T03:03:16;12.38;;;4.00;;
33672;SDS011;20011;51.510;9.942;2023-09-30T03:05:43;9.88;;;4.15;;
33672;SDS011;20011;51.510;9.942;2023-09-30T03:08:12;12.57;;;4.07;;
33672;SDS011;20011;51.510;9.942;2023-09-30T03:10:39;15.55;;;4.50;;
33672;SDS011;20011;51.510;9.942;2023-09-30T03:13:07;10.43;;;3.90;;
33672;SDS011;20011;51.510;9.942;2023-09-30T03:15:35;10.70;;;4.07;;
33672;SDS011;20011;51.510;9.942;2023-09-30T03:18:03;10.43;;;4.05;;
33672;SDS011;20011;51.510;9.942;2023-09-30T03:20:31;8.93;;;3.78;;
33672;SDS011;20011;51.510;9.942;2023-09-30T03:22:58;8.15;;;3.90;;
33672;SDS011;20011;51.510;9.942;2023-09-30T03:25:25;13.95;;;5.25;;
33672;SDS011;20011;51.510;9.942;2023-09-30T03:27:53;10.20;;;3.90;;
33672;SDS011;20011;51.510;9.942;2023-09-30T03:30:20;15.25;;;4.07;;
33672;SDS011;20011;51.510;9.942;2023-09-30T03:32:47;11.07;;;3.88;;
33672;SDS011;20011;51.510;9.942;2023-09-30T03:35:15;10.68;;;4.32;;
33672;SDS011;20011;51.510;9.942;2023-09-30T03:40:13;11.55;;;4.32;;
33672;SDS011;20011;51.510;9.942;2023-09-30T03:42:48;11.13;;;3.83;;
33672;SDS011;20011;51.510;9.942;2023-09-30T03:45:16;13.32;;;4.47;;
33672;SDS011;20011;51.510;9.942;2023-09-30T03:47:43;15.05;;;4.60;;
33672;SDS011;20011;51.510;9.942;2023-09-30T03:50:12;16.05;;;4.35;;
33672;SDS011;20011;51.510;9.942;2023-09-30T03:52:41;12.30;;;4.43;;
33672;SDS011;20011;51.510;9.942;2023-09-30T03:55:13;14.32;;;4.55;;
33672;SDS011;20011;51.510;9.942;2023-09-30T03:57:42;11.93;;;4.20;;
33672;SDS011;20011;51.510;9.942;2023-09-30T04:00:13;13.75;;;4.47;;
33672;SDS011;20011;51.510;9.942;2023-09-30T04:02:45;10.90;;;4.32;;
33672;SDS011;20011;51.510;9.942;2023-09-30T04:05:17;14.98;;;4.07;;
33672;SDS011;20011;51.510;9.942;2023-09-30T04:07:45;10.07;;;4.60;;
33672;SDS011;20011;51.510;9.942;2023-09-30T04:10:13;12.02;;;4.10;;
33672;SDS011;20011;51.510;9.942;2023-09-30T04:12:40;15.13;;;4.82;;
33672;SDS011;20011;51.510;9.942;2023-09-30T04:15:08;17.05;;;5.45;;
33672;SDS011;20011;51.510;9.942;2023-09-30T04:17:38;18.58;;;5.15;;
33672;SDS011;20011;51.510;9.942;2023-09-30T04:20:06;10.57;;;3.85;;
33672;SDS011;20011;51.510;9.942;2023-09-30T04:22:37;24.42;;;5.00;;
33672;SDS011;20011;51.510;9.942;2023-09-30T04:25:05;13.32;;;3.92;;
33672;SDS011;20011;51.510;9.942;2023-09-30T04:30:03;14.80;;;4.70;;
33672;SDS011;20011;51.510;9.942;2023-09-30T04:32:36;12.88;;;4.20;;
33672;SDS011;20011;51.510;9.942;2023-09-30T04:35:03;16.08;;;4.85;;
33672;SDS011;20011;51.510;9.942;2023-09-30T04:37:31;14.88;;;5.05;;
33672;SDS011;20011;51.510;9.942;2023-09-30T04:39:58;10.45;;;3.92;;
33672;SDS011;20011;51.510;9.942;2023-09-30T04:42:25;14.90;;;4.05;;
33672;SDS011;20011;51.510;9.942;2023-09-30T04:44:52;16.85;;;4.00;;
33672;SDS011;20011;51.510;9.942;2023-09-30T04:47:21;23.02;;;5.80;;
33672;SDS011;20011;51.510;9.942;2023-09-30T04:49:50;12.00;;;4.65;;
33672;SDS011;20011;51.510;9.942;2023-09-30T04:52:17;10.18;;;4.68;;
33672;SDS011;20011;51.510;9.942;2023-09-30T04:54:44;13.57;;;4.35;;
33672;SDS011;20011;51.510;9.942;2023-09-30T04:57:12;14.13;;;4.28;;
33672;SDS011;20011;51.510;9.942;2023-09-30T04:59:39;15.05;;;4.30;;
33672;SDS011;20011;51.510;9.942;2023-09-30T05:02:06;18.73;;;4.32;;
33672;SDS011;20011;51.510;9.942;2023-09-30T05:04:33;11.40;;;4.07;;
33672;SDS011;20011;51.510;9.942;2023-09-30T05:07:00;11.48;;;4.25;;
33672;SDS011;20011;51.510;9.942;2023-09-30T05:09:27;16.58;;;4.57;;
33672;SDS011;20011;51.510;9.942;2023-09-30T05:11:54;15.02;;;4.75;;
33672;SDS011;20011;51.510;9.942;2023-09-30T05:14:21;16.40;;;4.18;;
33672;SDS011;20011;51.510;9.942;2023-09-30T05:16:48;12.68;;;4.15;;
33672;SDS011;20011;51.510;9.942;2023-09-30T05:19:15;23.75;;;5.15;;
33672;SDS011;20011;51.510;9.942;2023-09-30T05:21:42;14.98;;;4.47;;
33672;SDS011;20011;51.510;9.942;2023-09-30T05:24:10;13.95;;;3.55;;
33672;SDS011;20011;51.510;9.942;2023-09-30T05:26:37;17.63;;;4.15;;
33672;SDS011;20011;51.510;9.942;2023-09-30T05:29:04;14.65;;;4.00;;
33672;SDS011;20011;51.510;9.942;2023-09-30T05:31:32;17.35;;;4.97;;
33672;SDS011;20011;51.510;9.942;2023-09-30T05:33:59;15.77;;;4.45;;
33672;SDS011;20011;51.510;9.942;2023-09-30T05:36:27;18.88;;;3.90;;
33672;SDS011;20011;51.510;9.942;2023-09-30T05:38:54;12.18;;;4.00;;
33672;SDS011;20011;51.510;9.942;2023-09-30T05:41:21;21.23;;;4.05;;
33672;SDS011;20011;51.510;9.942;2023-09-30T05:43:48;11.30;;;4.38;;
33672;SDS011;20011;51.510;9.942;2023-09-30T05:46:15;22.10;;;4.28;;
33672;SDS011;20011;51.510;9.942;2023-09-30T05:48:42;17.63;;;4.68;;
33672;SDS011;20011;51.510;9.942;2023-09-30T05:51:09;15.90;;;4.65;;
33672;SDS011;20011;51.510;9.942;2023-09-30T05:53:41;12.00;;;3.97;;
33672;SDS011;20011;51.510;9.942;2023-09-30T05:56:08;16.98;;;5.03;;
33672;SDS011;20011;51.510;9.942;2023-09-30T05:58:37;12.18;;;3.58;;
33672;SDS011;20011;51.510;9.942;2023-09-30T06:01:08;17.05;;;4.20;;
33672;SDS011;20011;51.510;9.942;2023-09-30T06:03:39;11.02;;;3.40;;
33672;SDS011;20011;51.510;9.942;2023-09-30T06:06:12;13.07;;;3.75;;
33672;SDS011;20011;51.510;9.942;2023-09-30T06:08:42;12.35;;;3.35;;
33672;SDS011;20011;51.510;9.942;2023-09-30T06:13:53;10.10;;;3.88;;
33672;SDS011;20011;51.510;9.942;2023-09-30T06:16:21;12.27;;;3.75;;
33672;SDS011;20011;51.510;9.942;2023-09-30T06:18:49;12.32;;;3.95;;
33672;SDS011;20011;51.510;9.942;2023-09-30T06:21:17;12.57;;;3.50;;
33672;SDS011;20011;51.510;9.942;2023-09-30T06:23:47;10.45;;;3.55;;
33672;SDS011;20011;51.510;9.942;2023-09-30T06:26:15;13.57;;;4.03;;
33672;SDS011;20011;51.510;9.942;2023-09-30T06:28:43;12.30;;;4.40;;
33672;SDS011;20011;51.510;9.942;2023-09-30T06:31:11;10.02;;;3.97;;
33672;SDS011;20011;51.510;9.942;2023-09-30T06:33:38;18.70;;;3.97;;
33672;SDS011;20011;51.510;9.942;2023-09-30T06:36:09;12.35;;;3.70;;
33672;SDS011;20011;51.510;9.942;2023-09-30T06:38:37;17.08;;;3.97;;
33672;SDS011;20011;51.510;9.942;2023-09-30T06:41:04;20.25;;;4.07;;
33672;SDS011;20011;51.510;9.942;2023-09-30T06:43:32;12.75;;;4.18;;
33672;SDS011;20011;51.510;9.942;2023-09-30T06:45:59;13.90;;;3.92;;
33672;SDS011;20011;51.510;9.942;2023-09-30T06:48:31;11.57;;;3.42;;
33672;SDS011;20011;51.510;9.942;2023-09-30T06:50:58;10.02;;;3.35;;
33672;SDS011;20011;51.510;9.942;2023-09-30T06:53:26;11.20;;;3.50;;
33672;SDS011;20011;51.510;9.942;2023-09-30T06:55:54;17.63;;;4.47;;
33672;SDS011;20011;51.510;9.942;2023-09-30T06:58:21;13.48;;;4.13;;
33672;SDS011;20011;51.510;9.942;2023-09-30T07:00:51;17.60;;;5.13;;
33672;SDS011;20011;51.510;9.942;2023-09-30T07:03:20;20.33;;;4.18;;
33672;SDS011;20011;51.510;9.942;2023-09-30T07:05:52;17.58;;;4.32;;
33672;SDS011;20011;51.510;9.942;2023-09-30T07:08:20;9.32;;;3.58;;
33672;SDS011;20011;51.510;9.942;2023-09-30T07:10:48;13.32;;;4.35;;
33672;SDS011;20011;51.510;9.942;2023-09-30T07:13:19;18.95;;;3.95;;
33672;SDS011;20011;51.510;9.942;2023-09-30T07:15:47;15.93;;;3.78;;
33672;SDS011;20011;51.510;9.942;2023-09-30T07:18:14;13.55;;;3.58;;
33672;SDS011;20011;51.510;9.942;2023-09-30T07:20:41;11.50;;;3.50;;
33672;SDS011;20011;51.510;9.942;2023-09-30T07:23:08;15.55;;;4.35;;
33672;SDS011;20011;51.510;9.942;2023-09-30T07:25:46;11.95;;;3.92;;
33672;SDS011;20011;51.510;9.942;2023-09-30T07:28:13;16.15;;;4.25;;
33672;SDS011;20011;51.510;9.942;2023-09-30T07:30:40;11.00;;;3.30;;
33672;SDS011;20011;51.510;9.942;2023-09-30T07:33:08;12.02;;;3.63;;
33672;SDS011;20011;51.510;9.942;2023-09-30T07:35:35;21.90;;;4.03;;
33672;SDS011;20011;51.510;9.942;2023-09-30T07:38:05;14.60;;;3.53;;
33672;SDS011;20011;51.510;9.942;2023-09-30T07:40:32;13.50;;;3.83;;
33672;SDS011;20011;51.510;9.942;2023-09-30T07:42:59;16.17;;;4.22;;
33672;SDS011;20011;51.510;9.942;2023-09-30T07:45:26;26.98;;;5.15;;
33672;SDS011;20011;51.510;9.942;2023-09-30T07:47:54;14.93;;;3.67;;
33672;SDS011;20011;51.510;9.942;2023-09-30T07:50:22;16.20;;;4.38;;
33672;SDS011;20011;51.510;9.942;2023-09-30T07:52:49;14.48;;;3.55;;
33672;SDS011;20011;51.510;9.942;2023-09-30T07:55:16;22.65;;;4.57;;
33672;SDS011;20011;51.510;9.942;2023-09-30T07:57:43;8.93;;;3.20;;
33672;SDS011;20011;51.510;9.942;2023-09-30T08:00:11;13.10;;;3.65;;
33672;SDS011;20011;51.510;9.942;2023-09-30T08:02:42;24.55;;;4.90;;
33672;SDS011;20011;51.510;9.942;2023-09-30T08:05:10;17.98;;;4.18;;
33672;SDS011;20011;51.510;9.942;2023-09-30T08:07:37;17.85;;;4.75;;
33672;SDS011;20011;51.510;9.942;2023-09-30T08:10:04;12.98;;;4.40;;
33672;SDS011;20011;51.510;9.942;2023-09-30T08:12:33;25.02;;;4.35;;
33672;SDS011;20011;51.510;9.942;2023-09-30T08:15:00;14.77;;;4.13;;
33672;SDS011;20011;51.510;9.942;2023-09-30T08:19:57;19.08;;;4.10;;
33672;SDS011;20011;51.510;9.942;2023-09-30T08:22:24;18.45;;;3.90;;
33672;SDS011;20011;51.510;9.942;2023-09-30T08:24:54;11.48;;;3.65;;
33672;SDS011;20011;51.510;9.942;2023-09-30T08:27:21;17.45;;;4.70;;
33672;SDS011;20011;51.510;9.942;2023-09-30T08:29:50;15.27;;;4.28;;
33672;SDS011;20011;51.510;9.942;2023-09-30T08:32:17;17.10;;;4.63;;
33672;SDS011;20011;51.510;9.942;2023-09-30T08:34:44;30.95;;;4.75;;
33672;SDS011;20011;51.510;9.942;2023-09-30T08:37:10;14.15;;;3.95;;
33672;SDS011;20011;51.510;9.942;2023-09-30T08:39:38;20.08;;;4.38;;
33672;SDS011;20011;51.510;9.942;2023-09-30T08:42:10;17.05;;;4.13;;
33672;SDS011;20011;51.510;9.942;2023-09-30T08:44:38;20.55;;;4.45;;
33672;SDS011;20011;51.510;9.942;2023-09-30T08:47:08;11.70;;;3.92;;
33672;SDS011;20011;51.510;9.942;2023-09-30T08:49:40;12.43;;;4.00;;
33672;SDS011;20011;51.510;9.942;2023-09-30T08:52:10;15.35;;;4.25;;
33672;SDS011;20011;51.510;9.942;2023-09-30T08:54:38;12.10;;;3.80;;
33672;SDS011;20011;51.510;9.942;2023-09-30T08:57:05;20.15;;;4.82;;
33672;SDS011;20011;51.510;9.942;2023-09-30T08:59:36;12.68;;;3.63;;
33672;SDS011;20011;51.510;9.942;2023-09-30T09:02:07;13.20;;;3.53;;
33672;SDS011;20011;51.510;9.942;2023-09-30T09:04:36;13.07;;;3.15;;
33672;SDS011;20011;51.510;9.942;2023-09-30T09:07:04;14.90;;;4.28;;
33672;SDS011;20011;51.510;9.942;2023-09-30T09:09:31;13.43;;;3.47;;
33672;SDS011;20011;51.510;9.942;2023-09-30T09:11:58;15.85;;;3.83;;
33672;SDS011;20011;51.510;9.942;2023-09-30T09:14:38;17.13;;;3.15;;
33672;SDS011;20011;51.510;9.942;2023-09-30T09:17:07;18.73;;;3.75;;
33672;SDS011;20011;51.510;9.942;2023-09-30T09:19:35;13.80;;;3.90;;
33672;SDS011;20011;51.510;9.942;2023-09-30T09:22:03;15.10;;;3.78;;
33672;SDS011;20011;51.510;9.942;2023-09-30T09:24:32;22.63;;;3.80;;
33672;SDS011;20011;51.510;9.942;2023-09-30T09:27:13;16.80;;;4.13;;
33672;SDS011;20011;51.510;9.942;2023-09-30T09:29:43;9.80;;;3.03;;
33672;SDS011;20011;51.510;9.942;2023-09-30T09:32:12;15.73;;;4.45;;
33672;SDS011;20011;51.510;9.942;2023-09-30T09:34:41;18.40;;;3.17;;
33672;SDS011;20011;51.510;9.942;2023-09-30T09:37:21;19.10;;;3.35;;
33672;SDS011;20011;51.510;9.942;2023-09-30T09:39:57;17.42;;;4.30;;
33672;SDS011;20011;51.510;9.942;2023-09-30T09:42:29;14.80;;;3.53;;
33672;SDS011;20011;51.510;9.942;2023-09-30T09:45:03;13.98;;;3.65;;
33672;SDS011;20011;51.510;9.942;2023-09-30T09:47:32;16.27;;;3.22;;
33672;SDS011;20011;51.510;9.942;2023-09-30T09:50:00;15.25;;;2.97;;
33672;SDS011;20011;51.510;9.942;2023-09-30T09:52:29;10.18;;;2.65;;
33672;SDS011;20011;51.510;9.942;2023-09-30T09:55:01;14.98;;;3.10;;
33672;SDS011;20011;51.510;9.942;2023-09-30T09:57:30;10.57;;;3.20;;
33672;SDS011;20011;51.510;9.942;2023-09-30T09:59:58;25.08;;;4.38;;
33672;SDS011;20011;51.510;9.942;2023-09-30T10:02:26;21.05;;;3.75;;
33672;SDS011;20011;51.510;9.942;2023-09-30T10:04:55;23.20;;;3.17;;
33672;SDS011;20011;51.510;9.942;2023-09-30T10:07:27;14.75;;;2.97;;
33672;SDS011;20011;51.510;9.942;2023-09-30T10:09:58;17.40;;;2.78;;
33672;SDS011;20011;51.510;9.942;2023-09-30T10:12:27;11.38;;;3.13;;
33672;SDS011;20011;51.510;9.942;2023-09-30T10:15:27;12.95;;;2.22;;
33672;SDS011;20011;51.510;9.942;2023-09-30T10:20:43;8.60;;;2.50;;
33672;SDS011;20011;51.510;9.942;2023-09-30T10:23:19;6.68;;;2.20;;
33672;SDS011;20011;51.510;9.942;2023-09-30T10:25:52;15.65;;;2.95;;
33672;SDS011;20011;51.510;9.942;2023-09-30T10:28:36;9.35;;;2.60;;
33672;SDS011;20011;51.510;9.942;2023-09-30T10:31:14;10.23;;;2.55;;
33672;SDS011;20011;51.510;9.942;2023-09-30T10:38:58;10.13;;;2.25;;
33672;SDS011;20011;51.510;9.942;2023-09-30T10:44:45;10.63;;;2.50;;
33672;SDS011;20011;51.510;9.942;2023-09-30T10:49:48;5.88;;;2.10;;
33672;SDS011;20011;51.510;9.942;2023-09-30T10:52:21;13.40;;;2.42;;
33672;SDS011;20011;51.510;9.942;2023-09-30T10:54:51;9.48;;;2.22;;
33672;SDS011;20011;51.510;9.942;2023-09-30T10:57:27;10.07;;;2.35;;
33672;SDS011;20011;51.510;9.942;2023-09-30T11:00:10;5.78;;;2.20;;
33672;SDS011;20011;51.510;9.942;2023-09-30T11:02:47;12.80;;;2.83;;
33672;SDS011;20011;51.510;9.942;2023-09-30T11:05:19;18.27;;;2.30;;
33672;SDS011;20011;51.510;9.942;2023-09-30T11:07:57;9.35;;;2.40;;
33672;SDS011;20011;51.510;9.942;2023-09-30T11:10:29;4.63;;;1.73;;
33672;SDS011;20011;51.510;9.942;2023-09-30T11:12:56;7.10;;;1.95;;
33672;SDS011;20011;51.510;9.942;2023-09-30T11:15:24;13.93;;;3.17;;
33672;SDS011;20011;51.510;9.942;2023-09-30T11:17:52;8.75;;;2.15;;
33672;SDS011;20011;51.510;9.942;2023-09-30T11:20:19;9.57;;;2.50;;
33672;SDS011;20011;51.510;9.942;2023-09-30T11:22:47;6.80;;;1.92;;
33672;SDS011;20011;51.510;9.942;2023-09-30T11:25:15;10.68;;;2.33;;
33672;SDS011;20011;51.510;9.942;2023-09-30T11:27:44;7.63;;;2.13;;
33672;SDS011;20011;51.510;9.942;2023-09-30T11:30:11;15.65;;;2.60;;
33672;SDS011;20011;51.510;9.942;2023-09-30T11:32:39;6.68;;;2.38;;
33672;SDS011;20011;51.510;9.942;2023-09-30T11:35:09;8.38;;;2.20;;
33672;SDS011;20011;51.510;9.942;2023-09-30T11:37:40;7.40;;;2.10;;
33672;SDS011;20011;51.510;9.942;2023-09-30T11:40:09;9.48;;;2.63;;
33672;SDS011;20011;51.510;9.942;2023-09-30T11:43:06;7.22;;;1.90;;
33672;SDS011;20011;51.510;9.942;2023-09-30T11:45:33;9.00;;;2.15;;
33672;SDS011;20011;51.510;9.942;2023-09-30T11:48:00;9.52;;;2.10;;
33672;SDS011;20011;51.510;9.942;2023-09-30T11:50:44;5.83;;;2.13;;
33672;SDS011;20011;51.510;9.942;2023-09-30T11:53:19;11.90;;;2.33;;
33672;SDS011;20011;51.510;9.942;2023-09-30T11:55:47;9.02;;;1.70;;
33672;SDS011;20011;51.510;9.942;2023-09-30T11:58:14;5.47;;;1.90;;
33672;SDS011;20011;51.510;9.942;2023-09-30T12:00:44;13.00;;;2.67;;
33672;SDS011;20011;51.510;9.942;2023-09-30T12:03:12;9.63;;;1.92;;
33672;SDS011;20011;51.510;9.942;2023-09-30T12:05:40;6.47;;;2.50;;
33672;SDS011;20011;51.510;9.942;2023-09-30T12:08:07;7.50;;;2.13;;
33672;SDS011;20011;51.510;9.942;2023-09-30T12:10:33;9.90;;;2.33;;
33672;SDS011;20011;51.510;9.942;2023-09-30T12:13:01;11.10;;;2.20;;
33672;SDS011;20011;51.510;9.942;2023-09-30T12:15:28;9.35;;;2.40;;
33672;SDS011;20011;51.510;9.942;2023-09-30T12:17:55;5.78;;;1.98;;
33672;SDS011;20011;51.510;9.942;2023-09-30T12:20:22;12.85;;;2.58;;
33672;SDS011;20011;51.510;9.942;2023-09-30T12:22:49;8.15;;;2.03;;
33672;SDS011;20011;51.510;9.942;2023-09-30T12:25:18;10.52;;;2.30;;
33672;SDS011;20011;51.510;9.942;2023-09-30T12:27:48;6.53;;;2.45;;
33672;SDS011;20011;51.510;9.942;2023-09-30T12:30:15;6.85;;;1.77;;
33672;SDS011;20011;51.510;9.942;2023-09-30T12:32:43;11.90;;;2.30;;
33672;SDS011;20011;51.510;9.942;2023-09-30T12:35:10;13.77;;;2.13;;
33672;SDS011;20011;51.510;9.942;2023-09-30T12:37:38;9.80;;;2.20;;
33672;SDS011;20011;51.510;9.942;2023-09-30T12:40:06;9.95;;;2.40;;
33672;SDS011;20011;51.510;9.942;2023-09-30T12:42:34;8.80;;;2.17;;
33672;SDS011;20011;51.510;9.942;2023-09-30T12:45:01;3.55;;;1.88;;
33672;SDS011;20011;51.510;9.942;2023-09-30T12:47:29;10.55;;;2.15;;
33672;SDS011;20011;51.510;9.942;2023-09-30T12:49:56;5.93;;;2.33;;
33672;SDS011;20011;51.510;9.942;2023-09-30T12:52:24;10.98;;;2.22;;
33672;SDS011;20011;51.510;9.942;2023-09-30T12:54:50;10.13;;;1.83;;
33672;SDS011;20011;51.510;9.942;2023-09-30T12:57:17;7.18;;;1.70;;
33672;SDS011;20011;51.510;9.942;2023-09-30T12:59:45;8.30;;;1.90;;
33672;SDS011;20011;51.510;9.942;2023-09-30T13:02:13;6.45;;;1.85;;
33672;SDS011;20011;51.510;9.942;2023-09-30T13:04:40;7.63;;;1.90;;
33672;SDS011;20011;51.510;9.942;2023-09-30T13:07:10;9.55;;;1.98;;
33672;SDS011;20011;51.510;9.942;2023-09-30T13:09:38;2.67;;;1.40;;
33672;SDS011;20011;51.510;9.942;2023-09-30T13:12:06;8.30;;;2.20;;
33672;SDS011;20011;51.510;9.942;2023-09-30T13:14:33;8.45;;;2.38;;
33672;SDS011;20011;51.510;9.942;2023-09-30T13:17:01;5.18;;;2.13;;
33672;SDS011;20011;51.510;9.942;2023-09-30T13:19:30;5.22;;;1.75;;
33672;SDS011;20011;51.510;9.942;2023-09-30T13:21:59;13.63;;;2.70;;
33672;SDS011;20011;51.510;9.942;2023-09-30T13:24:43;15.25;;;2.13;;
33672;SDS011;20011;51.510;9.942;2023-09-30T13:27:10;11.27;;;2.03;;
33672;SDS011;20011;51.510;9.942;2023-09-30T13:29:37;6.53;;;1.52;;
33672;SDS011;20011;51.510;9.942;2023-09-30T13:32:04;11.32;;;2.63;;
33672;SDS011;20011;51.510;9.942;2023-09-30T13:34:32;6.90;;;2.13;;
33672;SDS011;20011;51.510;9.942;2023-09-30T13:36:58;9.07;;;2.63;;
33672;SDS011;20011;51.510;9.942;2023-09-30T13:39:25;5.35;;;2.20;;
33672;SDS011;20011;51.510;9.942;2023-09-30T13:44:46;9.80;;;2.42;;
33672;SDS011;20011;51.510;9.942;2023-09-30T13:47:14;5.72;;;2.25;;
33672;SDS011;20011;51.510;9.942;2023-09-30T13:49:41;9.82;;;2.35;;
33672;SDS011;20011;51.510;9.942;2023-09-30T13:52:08;5.50;;;2.10;;
33672;SDS011;20011;51.510;9.942;2023-09-30T13:54:35;4.40;;;2.35;;
33672;SDS011;20011;51.510;9.942;2023-09-30T13:57:02;6.32;;;2.28;;
33672;SDS011;20011;51.510;9.942;2023-09-30T13:59:33;14.10;;;3.28;;
33672;SDS011;20011;51.510;9.942;2023-09-30T14:02:01;9.45;;;2.40;;
33672;SDS011;20011;51.510;9.942;2023-09-30T14:04:29;6.90;;;2.28;;
33672;SDS011;20011;51.510;9.942;2023-09-30T14:06:58;7.95;;;3.38;;
33672;SDS011;20011;51.510;9.942;2023-09-30T14:09:28;8.00;;;2.50;;
33672;SDS011;20011;51.510;9.942;2023-09-30T14:12:02;8.00;;;2.38;;
33672;SDS011;20011;51.510;9.942;2023-09-30T14:14:34;6.10;;;2.53;;
33672;SDS011;20011;51.510;9.942;2023-09-30T14:17:01;9.63;;;2.33;;
33672;SDS011;20011;51.510;9.942;2023-09-30T14:19:37;6.75;;;2.40;;
33672;SDS011;20011;51.510;9.942;2023-09-30T14:22:05;6.35;;;3.05;;
33672;SDS011;20011;51.510;9.942;2023-09-30T14:24:34;9.10;;;2.05;;
33672;SDS011;20011;51.510;9.942;2023-09-30T14:27:02;7.28;;;1.90;;
33672;SDS011;20011;51.510;9.942;2023-09-30T14:29:30;6.95;;;2.53;;
33672;SDS011;20011;51.510;9.942;2023-09-30T14:31:58;6.20;;;2.50;;
33672;SDS011;20011;51.510;9.942;2023-09-30T14:34:25;9.55;;;2.78;;
33672;SDS011;20011;51.510;9.942;2023-09-30T14:36:52;5.57;;;2.75;;
33672;SDS011;20011;51.510;9.942;2023-09-30T14:39:19;15.55;;;2.40;;
33672;SDS011;20011;51.510;9.942;2023-09-30T14:41:46;4.13;;;2.10;;
33672;SDS011;20011;51.510;9.942;2023-09-30T14:44:13;7.15;;;2.28;;
33672;SDS011;20011;51.510;9.942;2023-09-30T14:46:40;11.32;;;2.25;;
33672;SDS011;20011;51.510;9.942;2023-09-30T14:49:07;8.43;;;2.22;;
33672;SDS011;20011;51.510;9.942;2023-09-30T14:51:35;10.60;;;2.63;;
33672;SDS011;20011;51.510;9.942;2023-09-30T14:54:05;6.88;;;2.13;;
33672;SDS011;20011;51.510;9.942;2023-09-30T14:56:32;4.60;;;2.03;;
33672;SDS011;20011;51.510;9.942;2023-09-30T14:58:59;8.80;;;2.15;;
33672;SDS011;20011;51.510;9.942;2023-09-30T15:01:26;7.65;;;2.50;;
33672;SDS011;20011;51.510;9.942;2023-09-30T15:03:53;8.85;;;3.22;;
33672;SDS011;20011;51.510;9.942;2023-09-30T15:06:21;4.25;;;2.05;;
33672;SDS011;20011;51.510;9.942;2023-09-30T15:08:50;8.00;;;2.63;;
33672;SDS011;20011;51.510;9.942;2023-09-30T15:11:17;11.05;;;2.47;;
33672;SDS011;20011;51.510;9.942;2023-09-30T15:13:45;10.75;;;2.33;;